sensor_id;sensor_type;location;lat;lon;timestamp;temperature;humidity
13850;DHT22;6995;52.618;13.488;2022-08-04T04:30:06;22.00;1.00
13850;DHT22;6995;52.618;13.488;2022-08-04T04:32:46;22.10;1.00
13850;DHT22;6995;52.618;13.488;2022-08-04T04:35:59;22.20;1.00
13850;DHT22;6995;52.618;13.488;2022-08-04T04:41:43;22.30;1.00
13850;DHT22;6995;52.618;13.488;2022-08-04T04:49:39;22.70;1.00
13850;DHT22;6995;52.618;13.488;2022-08-04T04:52:23;22.70;1.00
13850;DHT22;6995;52.618;13.488;2022-08-04T04:57:21;22.80;1.00
13850;DHT22;6995;52.618;13.488;2022-08-04T04:59:57;22.90;1.00
13850;DHT22;6995;52.618;13.488;2022-08-04T05:02:47;23.00;1.00
13850;DHT22;6995;52.618;13.488;2022-08-04T05:05:48;22.90;1.00
13850;DHT22;6995;52.618;13.488;2022-08-04T05:11:40;23.20;1.00
13850;DHT22;6995;52.618;13.488;2022-08-04T05:14:29;23.20;1.00
13850;DHT22;6995;52.618;13.488;2022-08-04T05:22:31;23.50;1.00
13850;DHT22;6995;52.618;13.488;2022-08-04T05:25:20;23.60;1.00
13850;DHT22;6995;52.618;13.488;2022-08-04T05:31:05;23.80;1.00
13850;DHT22;6995;52.618;13.488;2022-08-04T05:34:14;24.00;1.00
13850;DHT22;6995;52.618;13.488;2022-08-04T05:36:58;24.10;1.00
13850;DHT22;6995;52.618;13.488;2022-08-04T05:39:27;24.10;1.00
13850;DHT22;6995;52.618;13.488;2022-08-04T05:41:54;24.20;1.00
13850;DHT22;6995;52.618;13.488;2022-08-04T05:44:22;24.20;1.00
13850;DHT22;6995;52.618;13.488;2022-08-04T05:46:51;24.30;1.00
13850;DHT22;6995;52.618;13.488;2022-08-04T05:49:19;24.40;1.00
13850;DHT22;6995;52.618;13.488;2022-08-04T05:51:45;24.60;1.00
13850;DHT22;6995;52.618;13.488;2022-08-04T05:54:13;24.70;1.00
13850;DHT22;6995;52.618;13.488;2022-08-04T05:56:41;24.80;1.00
13850;DHT22;6995;52.618;13.488;2022-08-04T05:59:07;25.00;1.00
13850;DHT22;6995;52.618;13.488;2022-08-04T06:01:37;25.20;1.00
13850;DHT22;6995;52.618;13.488;2022-08-04T06:04:05;25.30;1.00
13850;DHT22;6995;52.618;13.488;2022-08-04T06:06:31;25.40;1.00
13850;DHT22;6995;52.618;13.488;2022-08-04T06:08:57;25.50;1.00
13850;DHT22;6995;52.618;13.488;2022-08-04T06:11:26;25.60;1.00
13850;DHT22;6995;52.618;13.488;2022-08-04T06:13:56;25.70;1.00
13850;DHT22;6995;52.618;13.488;2022-08-04T06:16:23;25.90;1.00
13850;DHT22;6995;52.618;13.488;2022-08-04T06:18:51;26.10;1.00
13850;DHT22;6995;52.618;13.488;2022-08-04T06:21:20;26.20;1.00
13850;DHT22;6995;52.618;13.488;2022-08-04T06:23:48;26.40;1.00
13850;DHT22;6995;52.618;13.488;2022-08-04T06:26:15;26.40;1.00
13850;DHT22;6995;52.618;13.488;2022-08-04T06:28:49;26.60;1.00
13850;DHT22;6995;52.618;13.488;2022-08-04T06:31:19;26.80;1.00
13850;DHT22;6995;52.618;13.488;2022-08-04T06:34:04;26.90;1.00
13850;DHT22;6995;52.618;13.488;2022-08-04T06:36:31;27.10;1.00
13850;DHT22;6995;52.618;13.488;2022-08-04T06:39:01;27.20;1.00
13850;DHT22;6995;52.618;13.488;2022-08-04T06:41:31;27.40;1.00
13850;DHT22;6995;52.618;13.488;2022-08-04T06:44:06;27.60;1.00
13850;DHT22;6995;52.618;13.488;2022-08-04T06:46:35;27.90;1.00
13850;DHT22;6995;52.618;13.488;2022-08-04T06:49:01;28.00;1.00
13850;DHT22;6995;52.618;13.488;2022-08-04T06:51:30;28.10;1.00
13850;DHT22;6995;52.618;13.488;2022-08-04T06:53:57;28.20;1.00
13850;DHT22;6995;52.618;13.488;2022-08-04T06:56:24;28.30;1.00
13850;DHT22;6995;52.618;13.488;2022-08-04T06:58:51;28.60;1.00
13850;DHT22;6995;52.618;13.488;2022-08-04T07:01:20;28.70;1.00
13850;DHT22;6995;52.618;13.488;2022-08-04T07:03:48;28.80;1.00
13850;DHT22;6995;52.618;13.488;2022-08-04T07:06:14;28.90;1.00
13850;DHT22;6995;52.618;13.488;2022-08-04T07:08:40;29.00;1.00
13850;DHT22;6995;52.618;13.488;2022-08-04T07:11:06;28.90;1.00
13850;DHT22;6995;52.618;13.488;2022-08-04T07:13:33;29.10;1.00
13850;DHT22;6995;52.618;13.488;2022-08-04T07:16:03;29.30;1.00
13850;DHT22;6995;52.618;13.488;2022-08-04T07:18:30;29.50;1.00
13850;DHT22;6995;52.618;13.488;2022-08-04T07:20:56;29.70;1.00
13850;DHT22;6995;52.618;13.488;2022-08-04T07:23:23;29.70;1.00
13850;DHT22;6995;52.618;13.488;2022-08-04T07:25:51;29.80;1.00
13850;DHT22;6995;52.618;13.488;2022-08-04T07:28:18;30.10;1.00
13850;DHT22;6995;52.618;13.488;2022-08-04T07:30:44;30.00;1.00
13850;DHT22;6995;52.618;13.488;2022-08-04T07:33:13;30.00;1.00
13850;DHT22;6995;52.618;13.488;2022-08-04T07:35:39;30.10;1.00
13850;DHT22;6995;52.618;13.488;2022-08-04T07:38:05;30.10;1.00
13850;DHT22;6995;52.618;13.488;2022-08-04T07:40:31;30.20;1.00
13850;DHT22;6995;52.618;13.488;2022-08-04T07:42:57;30.30;1.00
13850;DHT22;6995;52.618;13.488;2022-08-04T07:45:24;30.40;1.00
13850;DHT22;6995;52.618;13.488;2022-08-04T07:47:50;30.50;1.00
13850;DHT22;6995;52.618;13.488;2022-08-04T07:50:15;30.40;1.00
13850;DHT22;6995;52.618;13.488;2022-08-04T07:52:43;30.30;1.00
13850;DHT22;6995;52.618;13.488;2022-08-04T07:55:10;30.40;1.00
13850;DHT22;6995;52.618;13.488;2022-08-04T07:57:36;30.50;1.00
13850;DHT22;6995;52.618;13.488;2022-08-04T08:00:04;30.70;1.00
13850;DHT22;6995;52.618;13.488;2022-08-04T08:02:36;30.80;1.00
13850;DHT22;6995;52.618;13.488;2022-08-04T08:05:03;30.80;1.00
13850;DHT22;6995;52.618;13.488;2022-08-04T08:07:29;30.90;1.00
13850;DHT22;6995;52.618;13.488;2022-08-04T08:09:55;31.30;1.00
13850;DHT22;6995;52.618;13.488;2022-08-04T08:12:21;31.30;1.00
13850;DHT22;6995;52.618;13.488;2022-08-04T08:14:47;31.30;1.00
13850;DHT22;6995;52.618;13.488;2022-08-04T08:17:13;31.30;1.00
13850;DHT22;6995;52.618;13.488;2022-08-04T08:19:39;31.20;1.00
13850;DHT22;6995;52.618;13.488;2022-08-04T08:22:05;31.40;1.00
13850;DHT22;6995;52.618;13.488;2022-08-04T08:24:34;31.20;1.00
13850;DHT22;6995;52.618;13.488;2022-08-04T08:27:01;31.30;1.00
13850;DHT22;6995;52.618;13.488;2022-08-04T08:29:28;31.40;1.00
13850;DHT22;6995;52.618;13.488;2022-08-04T08:31:55;31.40;1.00
13850;DHT22;6995;52.618;13.488;2022-08-04T08:34:21;31.30;1.00
13850;DHT22;6995;52.618;13.488;2022-08-04T08:36:56;31.30;1.00
13850;DHT22;6995;52.618;13.488;2022-08-04T08:39:27;31.30;1.00
13850;DHT22;6995;52.618;13.488;2022-08-04T08:45:37;31.40;1.00
13850;DHT22;6995;52.618;13.488;2022-08-04T08:53:43;31.50;1.00
13850;DHT22;6995;52.618;13.488;2022-08-04T09:10:53;31.70;1.00
13850;DHT22;6995;52.618;13.488;2022-08-04T09:19:03;32.00;1.00
13850;DHT22;6995;52.618;13.488;2022-08-04T09:21:44;32.20;1.00
13850;DHT22;6995;52.618;13.488;2022-08-04T09:24:17;32.20;1.00
13850;DHT22;6995;52.618;13.488;2022-08-04T09:32:43;32.30;1.00
13850;DHT22;6995;52.618;13.488;2022-08-04T09:35:39;32.50;1.00
13850;DHT22;6995;52.618;13.488;2022-08-04T09:44:18;32.80;1.00
13850;DHT22;6995;52.618;13.488;2022-08-04T09:52:47;33.10;1.00
13850;DHT22;6995;52.618;13.488;2022-08-04T09:55:17;32.90;1.00
13850;DHT22;6995;52.618;13.488;2022-08-04T09:57:56;33.10;1.00
13850;DHT22;6995;52.618;13.488;2022-08-04T10:00:31;33.20;1.00
13850;DHT22;6995;52.618;13.488;2022-08-04T10:02:59;33.30;1.00
13850;DHT22;6995;52.618;13.488;2022-08-04T10:11:06;33.50;1.00
13850;DHT22;6995;52.618;13.488;2022-08-04T10:19:28;33.90;1.00
13850;DHT22;6995;52.618;13.488;2022-08-04T10:22:32;33.90;1.00
13850;DHT22;6995;52.618;13.488;2022-08-04T10:28:11;33.80;1.00
13850;DHT22;6995;52.618;13.488;2022-08-04T10:30:39;33.90;1.00
13850;DHT22;6995;52.618;13.488;2022-08-04T10:33:12;34.00;1.00
13850;DHT22;6995;52.618;13.488;2022-08-04T10:35:52;34.00;1.00
13850;DHT22;6995;52.618;13.488;2022-08-04T10:38:30;34.10;1.00
13850;DHT22;6995;52.618;13.488;2022-08-04T10:41:09;34.20;1.00
13850;DHT22;6995;52.618;13.488;2022-08-04T10:46:33;34.30;1.00
13850;DHT22;6995;52.618;13.488;2022-08-04T10:49:07;34.40;1.00
13850;DHT22;6995;52.618;13.488;2022-08-04T10:54:23;34.60;1.00
13850;DHT22;6995;52.618;13.488;2022-08-04T10:56:58;34.60;1.00
13850;DHT22;6995;52.618;13.488;2022-08-04T11:01:54;34.60;1.00
13850;DHT22;6995;52.618;13.488;2022-08-04T11:04:45;34.80;1.00
13850;DHT22;6995;52.618;13.488;2022-08-04T11:07:12;34.90;1.00
13850;DHT22;6995;52.618;13.488;2022-08-04T11:09:42;35.10;1.00
13850;DHT22;6995;52.618;13.488;2022-08-04T11:12:18;35.10;1.00
13850;DHT22;6995;52.618;13.488;2022-08-04T11:15:05;35.20;1.00
13850;DHT22;6995;52.618;13.488;2022-08-04T11:17:55;35.40;1.00
13850;DHT22;6995;52.618;13.488;2022-08-04T11:21:09;35.30;1.00
13850;DHT22;6995;52.618;13.488;2022-08-04T11:23:38;35.60;1.00
13850;DHT22;6995;52.618;13.488;2022-08-04T11:26:12;35.70;1.00
13850;DHT22;6995;52.618;13.488;2022-08-04T11:31:42;35.80;1.00
13850;DHT22;6995;52.618;13.488;2022-08-04T11:37:10;35.90;1.00
13850;DHT22;6995;52.618;13.488;2022-08-04T11:42:36;36.30;1.00
13850;DHT22;6995;52.618;13.488;2022-08-04T11:45:03;36.50;1.00
13850;DHT22;6995;52.618;13.488;2022-08-04T11:47:35;36.10;1.00
13850;DHT22;6995;52.618;13.488;2022-08-04T11:52:40;36.30;1.00
13850;DHT22;6995;52.618;13.488;2022-08-04T11:55:09;36.30;1.00
13850;DHT22;6995;52.618;13.488;2022-08-04T11:57:36;36.70;1.00
13850;DHT22;6995;52.618;13.488;2022-08-04T12:00:11;36.70;1.00
13850;DHT22;6995;52.618;13.488;2022-08-04T12:09:01;37.20;1.00
13850;DHT22;6995;52.618;13.488;2022-08-04T21:46:55;29.20;1.00
13850;DHT22;6995;52.618;13.488;2022-08-04T21:49:20;29.20;1.00
13850;DHT22;6995;52.618;13.488;2022-08-04T21:51:46;29.10;1.00
13850;DHT22;6995;52.618;13.488;2022-08-04T21:54:12;29.00;1.00
13850;DHT22;6995;52.618;13.488;2022-08-04T21:56:38;28.80;1.00
13850;DHT22;6995;52.618;13.488;2022-08-04T21:59:04;28.60;1.00
13850;DHT22;6995;52.618;13.488;2022-08-04T22:01:31;28.60;1.00
13850;DHT22;6995;52.618;13.488;2022-08-04T22:03:56;28.50;1.00
13850;DHT22;6995;52.618;13.488;2022-08-04T22:06:22;28.50;1.00
13850;DHT22;6995;52.618;13.488;2022-08-04T22:08:48;28.60;1.00
13850;DHT22;6995;52.618;13.488;2022-08-04T22:11:27;28.50;1.00
13850;DHT22;6995;52.618;13.488;2022-08-04T22:13:56;28.40;1.00
13850;DHT22;6995;52.618;13.488;2022-08-04T22:16:22;28.30;1.00
13850;DHT22;6995;52.618;13.488;2022-08-04T22:18:47;28.20;1.00
13850;DHT22;6995;52.618;13.488;2022-08-04T22:21:13;28.20;1.00
13850;DHT22;6995;52.618;13.488;2022-08-04T22:23:39;28.30;1.00
13850;DHT22;6995;52.618;13.488;2022-08-04T22:26:11;28.30;1.00
13850;DHT22;6995;52.618;13.488;2022-08-04T22:28:37;28.40;1.00
13850;DHT22;6995;52.618;13.488;2022-08-04T22:31:03;28.30;1.00
13850;DHT22;6995;52.618;13.488;2022-08-04T22:33:28;28.30;1.00
13850;DHT22;6995;52.618;13.488;2022-08-04T22:35:54;28.20;1.00
13850;DHT22;6995;52.618;13.488;2022-08-04T22:38:19;28.10;1.00
13850;DHT22;6995;52.618;13.488;2022-08-04T22:40:45;27.90;1.00
13850;DHT22;6995;52.618;13.488;2022-08-04T22:43:11;27.80;1.00
13850;DHT22;6995;52.618;13.488;2022-08-04T22:45:42;27.70;1.00
13850;DHT22;6995;52.618;13.488;2022-08-04T22:48:07;27.70;1.00
13850;DHT22;6995;52.618;13.488;2022-08-04T22:50:33;27.60;1.00
13850;DHT22;6995;52.618;13.488;2022-08-04T22:52:59;27.60;1.00
13850;DHT22;6995;52.618;13.488;2022-08-04T22:55:24;27.50;1.00
13850;DHT22;6995;52.618;13.488;2022-08-04T22:57:50;27.50;1.00
13850;DHT22;6995;52.618;13.488;2022-08-04T23:00:16;27.50;1.00
13850;DHT22;6995;52.618;13.488;2022-08-04T23:02:41;27.40;1.00
13850;DHT22;6995;52.618;13.488;2022-08-04T23:05:07;27.40;1.00
13850;DHT22;6995;52.618;13.488;2022-08-04T23:07:33;27.30;1.00
13850;DHT22;6995;52.618;13.488;2022-08-04T23:09:59;27.30;1.00
13850;DHT22;6995;52.618;13.488;2022-08-04T23:12:24;27.30;1.00
13850;DHT22;6995;52.618;13.488;2022-08-04T23:14:50;27.30;1.00
13850;DHT22;6995;52.618;13.488;2022-08-04T23:17:15;27.30;1.00
13850;DHT22;6995;52.618;13.488;2022-08-04T23:19:41;27.30;1.00
13850;DHT22;6995;52.618;13.488;2022-08-04T23:22:07;27.30;1.00
13850;DHT22;6995;52.618;13.488;2022-08-04T23:24:32;27.30;1.00
13850;DHT22;6995;52.618;13.488;2022-08-04T23:26:59;27.30;1.00
13850;DHT22;6995;52.618;13.488;2022-08-04T23:29:24;27.30;1.00
13850;DHT22;6995;52.618;13.488;2022-08-04T23:31:50;27.20;1.00
13850;DHT22;6995;52.618;13.488;2022-08-04T23:34:16;27.20;1.00
13850;DHT22;6995;52.618;13.488;2022-08-04T23:36:41;27.20;1.00
13850;DHT22;6995;52.618;13.488;2022-08-04T23:39:07;27.10;1.00
13850;DHT22;6995;52.618;13.488;2022-08-04T23:41:33;27.00;1.00
13850;DHT22;6995;52.618;13.488;2022-08-04T23:43:59;27.00;1.00
13850;DHT22;6995;52.618;13.488;2022-08-04T23:46:25;26.90;1.00
13850;DHT22;6995;52.618;13.488;2022-08-04T23:48:51;26.80;1.00
13850;DHT22;6995;52.618;13.488;2022-08-04T23:51:18;26.70;1.00
13850;DHT22;6995;52.618;13.488;2022-08-04T23:53:44;26.60;1.00
13850;DHT22;6995;52.618;13.488;2022-08-04T23:56:13;26.60;1.00
13850;DHT22;6995;52.618;13.488;2022-08-04T23:58:39;26.50;1.00
